Time;durP1;ratioP1;P1;durP2;ratioP2;P2;SDS_P1;SDS_P2;PMS_P1;PMS_P2;Temp;Humidity;BMP_temperature;BMP_pressure;BME280_temperature;BME280_humidity;BME280_pressure;Samples;Min_cycle;Max_cycle;Signal;HPM_P1;HPM_P2
2021/04/03 00:00:47;;;;;;;25.12;15.27;;;;;;;15.54;60.05;100759.72;143750;677;46014;-80
2021/04/03 00:03:14;;;;;;;20.33;15.82;;;;;;;15.41;60.20;100753.25;143750;611;46010;-80
2021/04/03 00:05:41;;;;;;;19.23;15.95;;;;;;;15.42;60.76;100764.56;143749;584;46019;-81
2021/04/03 00:08:09;;;;;;;21.87;16.05;;;;;;;15.46;60.26;100753.41;143752;568;46029;-80
2021/04/03 00:11:03;;;;;;;22.25;16.83;;;;;;;15.45;60.31;100755.13;143747;652;46020;-81
2021/04/03 00:13:33;;;;;;;21.00;15.95;;;;;;;15.43;60.39;100748.06;143748;715;46012;-80
2021/04/03 00:16:00;;;;;;;22.08;16.58;;;;;;;15.35;60.21;100750.44;143748;599;46018;-80
2021/04/03 00:18:27;;;;;;;22.80;15.63;;;;;;;15.31;60.48;100742.47;143753;564;46010;-81
2021/04/03 00:20:54;;;;;;;20.67;15.73;;;;;;;15.24;60.95;100751.81;143748;563;46021;-79
2021/04/03 00:23:21;;;;;;;22.02;15.80;;;;;;;15.22;60.70;100750.88;143751;637;46010;-80
2021/04/03 00:25:49;;;;;;;26.25;20.10;;;;;;;15.29;60.36;100747.62;143742;635;46018;-79
2021/04/03 00:28:16;;;;;;;27.87;22.02;;;;;;;15.19;60.62;100746.44;143751;608;47011;-80
2021/04/03 00:30:43;;;;;;;27.45;19.25;;;;;;;15.12;60.64;100739.25;143745;693;46018;-80
2021/04/03 00:33:11;;;;;;;25.15;18.98;;;;;;;15.10;60.61;100740.91;143749;744;46010;-79
2021/04/03 00:35:40;;;;;;;23.95;18.25;;;;;;;14.96;61.17;100739.56;143749;570;46034;-80
2021/04/03 00:38:08;;;;;;;27.48;18.05;;;;;;;15.01;60.87;100740.59;143747;598;46029;-80
2021/04/03 00:40:46;;;;;;;24.85;17.55;;;;;;;14.85;61.24;100739.19;143749;577;46020;-79
2021/04/03 00:43:18;;;;;;;20.55;17.25;;;;;;;14.91;61.25;100736.78;143751;594;46010;-80
2021/04/03 00:45:46;;;;;;;22.10;16.75;;;;;;;14.86;61.77;100745.28;143748;581;46018;-80
2021/04/03 00:48:13;;;;;;;21.27;17.25;;;;;;;14.82;61.73;100741.69;143749;574;47010;-81
2021/04/03 00:50:43;;;;;;;20.20;15.88;;;;;;;14.84;61.39;100741.78;143746;656;46019;-81
2021/04/03 00:53:12;;;;;;;19.12;16.33;;;;;;;14.86;61.47;100735.78;143751;583;46010;-80
2021/04/03 00:55:39;;;;;;;18.77;16.62;;;;;;;14.86;61.39;100737.47;143747;564;46018;-81
2021/04/03 00:58:07;;;;;;;23.25;16.65;;;;;;;14.82;61.20;100726.03;143752;603;46010;-80
2021/04/03 01:00:34;;;;;;;24.90;16.02;;;;;;;14.82;61.06;100739.09;143749;563;46020;-79
2021/04/03 01:03:02;;;;;;;20.30;16.80;;;;;;;14.80;61.15;100732.94;143750;577;46010;-79
2021/04/03 01:05:29;;;;;;;19.17;16.77;;;;;;;14.68;61.16;100736.03;143750;585;46016;-79
2021/04/03 01:07:56;;;;;;;20.83;15.35;;;;;;;14.63;61.67;100729.75;143749;603;47018;-80
2021/04/03 01:10:28;;;;;;;27.50;17.15;;;;;;;14.64;61.19;100725.41;143748;689;46019;-80
2021/04/03 01:13:31;;;;;;;21.58;16.60;;;;;;;14.60;61.52;100727.03;143751;594;46010;-79
2021/04/03 01:16:38;;;;;;;22.75;17.15;;;;;;;14.63;60.76;100724.53;143743;573;46018;-79
2021/04/03 01:19:39;;;;;;;20.40;15.52;;;;;;;14.64;60.32;100718.50;143752;562;46011;-80
2021/04/03 01:22:41;;;;;;;18.42;14.82;;;;;;;14.68;60.24;100712.53;143748;567;46018;-79
2021/04/03 01:25:50;;;;;;;17.67;15.23;;;;;;;14.59;60.49;100714.81;143746;572;46010;-81
2021/04/03 01:29:20;;;;;;;18.67;14.82;;;;;;;14.59;60.58;100717.44;143748;612;46019;-79
2021/04/03 01:31:49;;;;;;;18.45;14.68;;;;;;;14.54;61.05;100714.66;143753;586;47010;-80
2021/04/03 01:34:27;;;;;;;20.12;15.63;;;;;;;14.49;61.08;100726.62;143750;640;46019;-80
2021/04/03 01:37:02;;;;;;;18.48;15.07;;;;;;;14.41;60.58;100719.34;143751;594;46010;-79
2021/04/03 01:39:31;;;;;;;21.15;13.40;;;;;;;14.38;60.69;100720.12;143749;659;46018;-80
2021/04/03 01:42:03;;;;;;;16.52;14.07;;;;;;;14.39;60.27;100718.41;143754;588;47010;-80
2021/04/03 01:44:36;;;;;;;16.27;13.18;;;;;;;14.31;60.74;100723.34;143746;571;46012;-79
2021/04/03 01:47:05;;;;;;;15.02;13.02;;;;;;;14.27;61.71;100718.87;143749;633;46010;-80
2021/04/03 01:49:33;;;;;;;15.07;12.43;;;;;;;14.28;61.27;100724.13;143752;581;46019;-80
2021/04/03 01:52:01;;;;;;;16.40;14.00;;;;;;;14.22;61.05;100729.13;143754;631;46010;-80
2021/04/03 01:54:31;;;;;;;17.70;12.55;;;;;;;14.05;61.84;100722.41;143750;591;46020;-80
2021/04/03 01:56:59;;;;;;;16.33;12.37;;;;;;;14.15;60.89;100726.25;143753;573;46011;-80
2021/04/03 01:59:25;;;;;;;13.52;12.13;;;;;;;14.20;61.29;100724.69;143752;600;46023;-80
2021/04/03 02:01:55;;;;;;;14.57;12.45;;;;;;;14.14;61.13;100724.44;143753;626;46010;-80
2021/04/03 02:04:22;;;;;;;16.37;13.68;;;;;;;14.13;61.53;100720.06;143749;593;46021;-81
2021/04/03 02:06:50;;;;;;;14.77;12.95;;;;;;;14.17;61.19;100728.06;143751;568;46018;-79
2021/04/03 02:09:19;;;;;;;17.92;11.98;;;;;;;14.13;60.68;100723.56;143741;576;46018;-80
2021/04/03 02:11:49;;;;;;;16.08;12.85;;;;;;;14.14;60.94;100727.94;143752;648;46011;-80
2021/04/03 02:14:17;;;;;;;17.75;11.50;;;;;;;14.05;60.99;100731.13;143746;574;47016;-80
2021/04/03 02:16:45;;;;;;;15.40;12.27;;;;;;;14.21;60.44;100723.88;143755;532;46010;-80
2021/04/03 02:19:13;;;;;;;16.95;11.95;;;;;;;14.26;60.66;100727.50;143754;575;45021;-80
2021/04/03 02:21:41;;;;;;;15.48;12.50;;;;;;;14.18;60.45;100727.25;143751;583;46010;-80
2021/04/03 02:24:08;;;;;;;18.37;12.88;;;;;;;14.26;60.38;100717.97;143749;584;46911;-80
2021/04/03 02:26:36;;;;;;;17.33;13.05;;;;;;;14.26;60.16;100715.34;143752;588;46018;-79
2021/04/03 02:29:06;;;;;;;18.10;14.18;;;;;;;14.30;59.97;100724.19;143754;648;46018;-80
2021/04/03 02:31:36;;;;;;;16.98;14.07;;;;;;;14.27;60.70;100724.09;143753;569;46030;-79
2021/04/03 02:34:03;;;;;;;23.25;15.50;;;;;;;14.19;60.71;100730.75;143753;622;46020;-79
2021/04/03 02:36:30;;;;;;;19.15;15.38;;;;;;;14.27;60.60;100732.78;143751;570;46018;-79
2021/04/03 02:38:58;;;;;;;18.92;14.80;;;;;;;14.18;60.79;100726.38;143750;644;46018;-79
2021/04/03 02:41:48;;;;;;;22.25;14.55;;;;;;;14.22;61.12;100728.25;143751;579;46019;-79
2021/04/03 02:44:20;;;;;;;22.60;15.55;;;;;;;14.14;61.17;100721.84;143750;599;46014;-79
2021/04/03 02:47:15;;;;;;;23.77;15.18;;;;;;;14.13;60.91;100726.19;143750;679;46010;-79
2021/04/03 02:49:50;;;;;;;20.25;14.77;;;;;;;14.13;61.33;100723.56;143752;604;46019;-79
2021/04/03 02:52:17;;;;;;;18.33;14.35;;;;;;;14.06;61.21;100719.84;143754;641;46010;-78
2021/04/03 02:54:46;;;;;;;25.75;14.07;;;;;;;14.03;61.54;100721.47;143750;568;46020;-80
2021/04/03 02:57:15;;;;;;;21.25;14.57;;;;;;;13.99;61.14;100719.59;143751;579;46019;-79
2021/04/03 02:59:52;;;;;;;19.08;13.43;;;;;;;14.05;60.82;100719.81;143750;569;46018;-79
2021/04/03 03:02:21;;;;;;;20.00;15.07;;;;;;;13.88;61.54;100733.91;143753;584;47010;-80
2021/04/03 03:04:49;;;;;;;19.23;13.73;;;;;;;13.88;61.23;100728.72;143750;565;46014;-81
2021/04/03 03:07:17;;;;;;;15.52;12.65;;;;;;;13.84;61.47;100730.31;143751;577;46010;-79
2021/04/03 03:09:48;;;;;;;16.90;13.27;;;;;;;13.80;61.41;100731.91;143751;572;46018;-79
2021/04/03 03:12:17;;;;;;;17.90;13.85;;;;;;;13.72;61.04;100730.72;143755;596;46010;-79
2021/04/03 03:14:47;;;;;;;16.48;12.95;;;;;;;13.77;60.99;100729.19;143755;569;46012;-78
2021/04/03 03:17:14;;;;;;;16.70;13.10;;;;;;;13.82;61.17;100732.84;143754;562;46010;-79
2021/04/03 03:19:42;;;;;;;18.15;13.48;;;;;;;13.76;61.01;100726.50;143752;588;46019;-80
2021/04/03 03:22:09;;;;;;;14.87;13.20;;;;;;;13.69;61.06;100738.44;143754;575;46010;-78
2021/04/03 03:24:37;;;;;;;17.05;12.98;;;;;;;13.70;61.76;100731.50;143752;570;46020;-79
2021/04/03 03:27:05;;;;;;;20.35;13.80;;;;;;;13.70;61.33;100737.59;143755;573;46010;-79
2021/04/03 03:29:34;;;;;;;18.62;13.48;;;;;;;13.67;61.05;100744.41;143753;567;46018;-79
2021/04/03 03:32:02;;;;;;;16.33;13.23;;;;;;;13.62;61.59;100746.84;143754;587;46010;-79
2021/04/03 03:34:29;;;;;;;18.80;13.70;;;;;;;13.48;62.06;100742.78;143751;584;46021;-80
2021/04/03 03:36:57;;;;;;;20.85;15.05;;;;;;;13.48;61.31;100742.78;143754;562;46012;-79
2021/04/03 03:39:25;;;;;;;23.10;17.55;;;;;;;13.44;61.24;100739.19;143749;603;46018;-79
2021/04/03 03:41:57;;;;;;;17.52;14.02;;;;;;;13.33;61.87;100740.44;143753;601;47010;-79
2021/04/03 03:44:25;;;;;;;17.08;12.82;;;;;;;13.33;62.00;100740.44;143751;587;46020;-79
2021/04/03 03:46:52;;;;;;;17.55;13.65;;;;;;;13.35;61.72;100744.00;143754;618;46012;-80
2021/04/03 03:49:18;;;;;;;24.77;13.93;;;;;;;13.35;61.43;100744.00;143751;608;46019;-79
2021/04/03 03:51:46;;;;;;;21.87;15.85;;;;;;;13.28;61.69;100747.22;143754;574;46010;-81
2021/04/03 03:54:12;;;;;;;18.45;15.90;;;;;;;13.23;62.19;100744.38;143753;646;46015;-80
2021/04/03 03:56:39;;;;;;;19.20;15.43;;;;;;;13.20;62.04;100744.25;143754;586;46010;-80
2021/04/03 03:59:06;;;;;;;21.12;16.02;;;;;;;13.18;61.67;100752.00;143754;569;46012;-80
2021/04/03 04:01:34;;;;;;;28.30;15.57;;;;;;;13.15;61.83;100746.69;143753;623;46011;-79
2021/04/03 04:04:01;;;;;;;21.55;15.63;;;;;;;13.09;62.05;100751.63;143752;584;46021;-80
2021/04/03 04:06:27;;;;;;;20.60;15.68;;;;;;;13.00;62.25;100753.84;143754;574;46019;-79
2021/04/03 04:08:55;;;;;;;23.77;14.30;;;;;;;12.93;62.64;100746.63;143751;569;46018;-80
2021/04/03 04:11:22;;;;;;;19.42;14.70;;;;;;;12.92;62.17;100752.63;143757;574;46010;-80
2021/04/03 04:13:49;;;;;;;18.02;15.13;;;;;;;12.95;62.08;100757.97;143751;578;46018;-80
2021/04/03 04:16:16;;;;;;;16.98;14.77;;;;;;;13.05;61.66;100762.75;143753;711;46010;-80
2021/04/03 04:18:43;;;;;;;22.30;15.40;;;;;;;13.06;62.08;100753.22;143751;563;46018;-79
2021/04/03 04:21:09;;;;;;;21.65;15.07;;;;;;;12.94;62.28;100762.28;143754;570;46010;-80
2021/04/03 04:23:37;;;;;;;19.80;14.40;;;;;;;12.94;62.17;100759.69;143750;596;46020;-79
2021/04/03 04:26:04;;;;;;;21.37;13.85;;;;;;;13.02;61.97;100762.63;143754;594;46011;-79
2021/04/03 04:28:34;;;;;;;27.73;14.73;;;;;;;13.06;61.69;100755.81;143751;612;46018;-79
2021/04/03 04:31:01;;;;;;;17.35;14.15;;;;;;;12.97;62.05;100771.94;143754;611;46010;-79
2021/04/03 04:33:28;;;;;;;19.30;13.55;;;;;;;13.05;61.83;100769.63;143752;564;46019;-80
2021/04/03 04:35:55;;;;;;;18.37;12.05;;;;;;;13.03;62.09;100776.53;143752;632;46010;-78
2021/04/03 04:38:23;;;;;;;14.35;12.32;;;;;;;13.03;61.96;100776.53;143755;568;46018;-80
2021/04/03 04:40:49;;;;;;;22.35;13.35;;;;;;;13.05;62.17;100775.75;143755;579;46010;-79
2021/04/03 04:43:21;;;;;;;19.48;13.20;;;;;;;13.09;61.91;100772.44;143752;575;46018;-79
2021/04/03 04:45:48;;;;;;;25.50;13.73;;;;;;;13.09;62.03;100777.66;143755;680;46010;-79
2021/04/03 04:48:15;;;;;;;22.52;12.57;;;;;;;13.06;61.91;100777.53;143751;562;46019;-79
2021/04/03 04:50:42;;;;;;;19.08;12.73;;;;;;;13.15;61.95;100779.63;143754;564;46010;-81
2021/04/03 04:53:09;;;;;;;21.20;13.48;;;;;;;13.07;62.52;100781.91;143752;562;46020;-79
2021/04/03 04:55:35;;;;;;;23.05;13.90;;;;;;;13.18;61.79;100772.84;143754;651;46010;-79
2021/04/03 04:58:02;;;;;;;28.12;14.07;;;;;;;13.13;62.12;100769.13;143750;587;46018;-79
2021/04/03 05:00:29;;;;;;;19.27;12.43;;;;;;;13.24;61.90;100774.81;143755;656;46010;-79
2021/04/03 05:02:56;;;;;;;21.23;13.05;;;;;;;13.22;61.93;100775.56;143751;648;46035;-79
2021/04/03 05:05:23;;;;;;;17.90;13.23;;;;;;;13.27;62.03;100785.38;143755;564;46010;-79
2021/04/03 05:07:50;;;;;;;26.30;14.82;;;;;;;13.23;62.09;100782.53;143753;678;46018;-79
2021/04/03 05:10:17;;;;;;;32.20;15.93;;;;;;;13.30;61.62;100782.91;143754;606;47010;-79
2021/04/03 05:12:45;;;;;;;23.65;16.35;;;;;;;13.40;61.90;100782.44;143751;575;46018;-79
2021/04/03 05:15:12;;;;;;;23.15;17.20;;;;;;;13.46;61.89;100783.50;143752;571;46018;-80
2021/04/03 05:17:38;;;;;;;23.60;16.98;;;;;;;13.46;61.50;100788.72;143751;610;46019;-79
2021/04/03 05:20:06;;;;;;;22.55;16.02;;;;;;;13.54;61.56;100790.81;143754;656;46010;-79
2021/04/03 05:22:33;;;;;;;20.83;13.55;;;;;;;13.62;61.24;100786.81;143752;569;46020;-79
2021/04/03 05:25:00;;;;;;;27.33;14.05;;;;;;;13.61;61.44;100794.53;143754;601;46010;-79
2021/04/03 05:27:26;;;;;;;18.15;13.30;;;;;;;13.76;61.01;100786.44;143753;609;46034;-78
2021/04/03 05:29:53;;;;;;;19.58;13.05;;;;;;;13.84;61.67;100774.62;143754;576;46010;-79
2021/04/03 05:32:20;;;;;;;20.25;13.30;;;;;;;13.95;60.95;100778.50;143750;650;46019;-79
2021/04/03 05:34:48;;;;;;;23.02;12.48;;;;;;;14.02;61.07;100783.16;143753;579;46010;-79
2021/04/03 05:37:14;;;;;;;18.05;12.82;;;;;;;14.09;61.09;100782.53;143751;597;46018;-79
2021/04/03 05:39:41;;;;;;;16.65;11.93;;;;;;;14.24;58.71;100784.84;143756;640;46011;-80
2021/04/03 05:42:14;;;;;;;17.65;12.48;;;;;;;14.36;58.57;100780.91;143751;587;46018;-79
2021/04/03 05:44:42;;;;;;;17.55;12.75;;;;;;;14.47;58.09;100780.47;143754;594;46010;-80
2021/04/03 05:47:09;;;;;;;19.55;13.70;;;;;;;14.65;57.07;100784.62;143752;571;46019;-80
2021/04/03 05:49:37;;;;;;;16.90;12.68;;;;;;;14.71;56.68;100780.50;143756;641;46010;-80
2021/04/03 05:52:04;;;;;;;19.12;12.37;;;;;;;14.76;56.17;100781.53;143751;613;46020;-80
2021/04/03 05:54:31;;;;;;;19.77;12.35;;;;;;;14.88;55.58;100777.56;143754;572;46010;-80
2021/04/03 05:56:58;;;;;;;18.58;11.38;;;;;;;15.04;54.91;100773.75;143752;576;46019;-79
2021/04/03 05:59:25;;;;;;;17.65;11.75;;;;;;;15.01;54.76;100771.94;143755;564;46010;-81
2021/04/03 06:01:52;;;;;;;16.20;11.43;;;;;;;15.07;54.23;100771.25;143753;565;46019;-80
2021/04/03 06:04:19;;;;;;;20.88;12.40;;;;;;;15.17;54.05;100766.41;143753;563;46010;-80
2021/04/03 06:06:46;;;;;;;19.20;12.48;;;;;;;15.20;53.48;100778.66;143752;601;46018;-80
2021/04/03 06:09:14;;;;;;;20.92;13.35;;;;;;;15.26;53.28;100773.63;143755;584;46011;-80
2021/04/03 06:11:45;;;;;;;18.35;13.50;;;;;;;15.31;52.08;100777.31;143751;610;46018;-80
2021/04/03 06:14:13;;;;;;;24.17;15.05;;;;;;;15.39;51.58;100777.53;143755;576;46028;-80
2021/04/03 06:16:42;;;;;;;20.10;15.88;;;;;;;15.49;51.45;100782.25;143743;563;46019;-79
2021/04/03 06:19:22;;;;;;;21.92;16.17;;;;;;;15.50;51.30;100783.13;143757;587;46010;-80
2021/04/03 06:22:00;;;;;;;22.30;15.88;;;;;;;15.58;51.11;100785.16;143750;641;46018;-80
2021/04/03 06:24:35;;;;;;;20.35;15.88;;;;;;;15.74;51.07;100783.06;143754;574;46029;-81
2021/04/03 06:27:11;;;;;;;22.27;15.88;;;;;;;15.81;50.67;100782.41;143754;592;46018;-80
2021/04/03 06:29:47;;;;;;;21.12;16.02;;;;;;;15.88;50.93;100779.13;143755;721;46010;-81
2021/04/03 06:32:34;;;;;;;20.35;15.30;;;;;;;15.92;50.99;100787.13;143751;576;46020;-80
2021/04/03 06:35:02;;;;;;;19.77;14.80;;;;;;;15.96;51.32;100789.84;143751;608;46010;-80
2021/04/03 06:37:34;;;;;;;20.27;14.77;;;;;;;15.94;50.36;100785.41;143753;573;46012;-80
2021/04/03 06:40:06;;;;;;;24.33;15.27;;;;;;;16.08;50.12;100782.34;143755;569;46010;-80
2021/04/03 06:43:00;;;;;;;17.65;14.07;;;;;;;16.10;50.28;100788.50;143746;567;47018;-80
2021/04/03 06:45:32;;;;;;;21.30;14.35;;;;;;;16.23;49.80;100787.13;143754;586;46010;-80
2021/04/03 06:48:04;;;;;;;21.08;15.25;;;;;;;16.31;49.63;100788.25;143753;563;46013;-80
2021/04/03 06:50:41;;;;;;;24.10;14.45;;;;;;;16.42;49.42;100791.16;143754;614;46010;-80
2021/04/03 06:53:12;;;;;;;23.45;14.30;;;;;;;16.42;49.30;100781.59;143751;572;46020;-81
2021/04/03 06:55:40;;;;;;;17.92;14.05;;;;;;;16.45;49.73;100783.41;143752;562;46010;-79
2021/04/03 06:58:09;;;;;;;23.65;14.63;;;;;;;16.45;48.91;100784.31;143753;573;46018;-81
2021/04/03 07:00:39;;;;;;;17.35;13.23;;;;;;;16.54;49.35;100788.91;143753;588;47010;-81
2021/04/03 07:03:35;;;;;;;27.25;18.42;;;;;;;16.65;51.71;100802.31;143751;568;46018;-80
2021/04/03 07:06:02;;;;;;;23.02;16.42;;;;;;;16.67;51.77;100804.13;143754;570;46010;-80
2021/04/03 07:08:38;;;;;;;25.80;16.25;;;;;;;16.73;52.33;100801.69;143751;581;46018;-79
2021/04/03 07:11:08;;;;;;;21.77;14.13;;;;;;;16.75;51.14;100796.47;143756;598;45019;-80
2021/04/03 07:13:38;;;;;;;25.52;15.95;;;;;;;16.80;54.21;100787.94;143751;569;46018;-80
2021/04/03 07:16:06;;;;;;;23.65;14.93;;;;;;;16.92;55.53;100797.84;143748;610;46030;-80
2021/04/03 07:18:34;;;;;;;21.65;13.77;;;;;;;16.88;52.80;100790.72;143753;568;46012;-80
2021/04/03 07:21:05;;;;;;;19.00;14.18;;;;;;;16.97;53.08;100797.97;143755;574;46027;-80
2021/04/03 07:23:33;;;;;;;21.27;15.15;;;;;;;17.02;54.00;100792.00;143753;669;46014;-79
2021/04/03 07:26:01;;;;;;;23.48;13.65;;;;;;;17.06;53.28;100787.72;143753;575;46010;-80
2021/04/03 07:28:39;;;;;;;18.35;13.45;;;;;;;17.17;54.75;100788.00;143753;583;46016;-80
2021/04/03 07:31:06;;;;;;;30.10;15.13;;;;;;;17.17;56.68;100791.50;143756;570;46010;-81
2021/04/03 07:33:34;;;;;;;28.92;15.00;;;;;;;17.23;57.51;100785.56;143749;607;46018;-80
2021/04/03 07:36:08;;;;;;;29.67;15.48;;;;;;;17.34;55.92;100784.06;143754;698;46010;-80
2021/04/03 07:38:38;;;;;;;26.77;16.08;;;;;;;17.46;56.72;100786.97;143752;603;46018;-82
2021/04/03 07:41:37;;;;;;;23.17;14.18;;;;;;;17.54;56.55;100784.56;143755;569;46010;-80
2021/04/03 07:44:15;;;;;;;35.28;20.88;;;;;;;17.61;60.34;100781.22;143751;591;46022;-83
2021/04/03 07:46:44;;;;;;;29.60;20.37;;;;;;;17.58;61.57;100778.53;143750;639;46920;-80
2021/04/03 07:49:30;;;;;;;34.40;20.98;;;;;;;17.71;61.21;100777.97;143751;578;46018;-80
2021/04/03 07:51:57;;;;;;;32.05;20.20;;;;;;;17.65;61.62;100769.06;143754;586;46010;-80
2021/04/03 07:54:27;;;;;;;32.08;19.45;;;;;;;17.73;61.28;100778.00;143751;581;46020;-80
2021/04/03 07:57:01;;;;;;;25.30;17.45;;;;;;;17.70;60.67;100775.31;143752;586;46010;-77
2021/04/03 07:59:51;;;;;;;30.98;13.32;;;;;;;17.78;58.04;100785.13;143749;641;46021;-80
2021/04/03 08:02:23;;;;;;;28.02;17.75;;;;;;;17.86;59.41;100785.34;143753;563;46010;-79
2021/04/03 08:04:51;;;;;;;34.67;20.08;;;;;;;17.91;59.33;100778.47;143750;584;46018;-78
2021/04/03 08:07:20;;;;;;;28.35;17.35;;;;;;;17.91;59.98;100774.94;143752;634;46028;-83
2021/04/03 08:09:48;;;;;;;33.80;16.90;;;;;;;18.00;59.51;100783.00;143750;568;46019;-82
2021/04/03 08:12:15;;;;;;;31.60;17.15;;;;;;;18.05;59.48;100791.00;143752;608;46018;-81
2021/04/03 08:14:43;;;;;;;29.33;16.80;;;;;;;18.10;59.76;100782.37;143746;569;49020;-80
2021/04/03 08:17:17;;;;;;;24.65;16.55;;;;;;;18.09;59.34;100779.69;143750;563;46010;-83
2021/04/03 08:19:44;;;;;;;;;;;;;;;18.18;60.17;100782.53;143755;982;46018;-79
2021/04/03 08:22:11;;;;;;;36.88;17.73;;;;;;;18.29;60.15;100781.03;143760;609;46008;-79
2021/04/03 08:24:37;;;;;;;30.00;18.23;;;;;;;18.34;60.69;100778.47;143748;586;46021;-79
2021/04/03 08:27:05;;;;;;;29.40;19.25;;;;;;;18.35;60.05;100780.22;143753;572;46008;-80
2021/04/03 08:29:39;;;;;;;32.72;18.30;;;;;;;18.41;59.05;100780.34;143751;585;46018;-80
2021/04/03 08:32:07;;;;;;;20.67;17.43;;;;;;;18.41;58.36;100778.66;143751;641;46019;-80
2021/04/03 08:34:42;;;;;;;26.23;19.50;;;;;;;18.45;58.55;100779.59;143749;611;46020;-79
2021/04/03 08:37:09;;;;;;;24.58;18.35;;;;;;;18.52;58.71;100776.22;143751;576;46008;-79
2021/04/03 08:39:36;;;;;;;29.77;18.50;;;;;;;18.61;58.32;100775.53;143748;636;46031;-79
2021/04/03 08:42:03;;;;;;;34.30;20.02;;;;;;;18.61;57.87;100775.53;143754;581;47008;-79
2021/04/03 08:44:31;;;;;;;49.65;19.30;;;;;;;18.64;57.12;100770.31;143748;576;46020;-78
2021/04/03 08:47:04;;;;;;;50.85;16.73;;;;;;;18.68;55.69;100772.16;143753;581;46008;-77
2021/04/03 08:49:37;;;;;;;46.42;16.10;;;;;;;18.76;56.14;100761.84;143748;608;46018;-79
2021/04/03 08:52:06;;;;;;;32.40;15.60;;;;;;;18.81;55.90;100761.03;143751;600;46008;-81
2021/04/03 08:54:40;;;;;;;30.30;13.65;;;;;;;18.93;55.22;100753.38;143746;612;46021;-81
2021/04/03 08:57:27;;;;;;;27.10;14.05;;;;;;;18.95;53.94;100760.44;143753;628;46008;-82
2021/04/03 09:00:02;;;;;;;25.85;13.90;;;;;;;19.10;53.69;100756.31;143749;620;46033;-83
2021/04/03 09:02:30;;;;;;;21.65;15.52;;;;;;;19.20;53.37;100751.22;143756;592;46008;-84
2021/04/03 09:05:03;;;;;;;23.58;15.05;;;;;;;19.29;52.34;100756.63;143749;617;46018;-84
2021/04/03 09:07:33;;;;;;;26.83;15.07;;;;;;;19.34;52.65;100747.91;143750;568;46019;-82
2021/04/03 09:10:11;;;;;;;20.40;14.82;;;;;;;19.46;51.85;100746.34;143750;599;46018;-84
2021/04/03 09:12:40;;;;;;;21.77;14.85;;;;;;;19.52;52.55;100739.44;143751;569;46008;-84
2021/04/03 09:15:08;;;;;;;20.20;14.25;;;;;;;19.53;52.06;100738.59;143744;568;46019;-85
2021/04/03 09:17:45;;;;;;;21.30;14.65;;;;;;;19.66;51.35;100733.53;143739;562;46008;-83
2021/04/03 09:20:14;;;;;;;20.02;15.02;;;;;;;19.76;51.93;100733.69;143749;577;46018;-84
2021/04/03 09:22:43;;;;;;;18.42;13.93;;;;;;;19.89;51.72;100732.09;143753;594;46025;-85
2021/04/03 09:25:11;;;;;;;18.35;12.93;;;;;;;19.98;50.89;100726.97;143749;577;46021;-85
2021/04/03 09:27:38;;;;;;;17.42;13.43;;;;;;;20.00;50.05;100726.97;143747;568;46008;-86
2021/04/03 09:30:13;;;;;;;18.48;12.98;;;;;;;20.11;51.53;100725.37;143749;569;46019;-85
2021/04/03 09:32:48;;;;;;;15.55;13.05;;;;;;;20.19;50.74;100729.00;143751;576;47008;-88
2021/04/03 09:35:24;;;;;;;15.77;12.90;;;;;;;20.19;48.65;100726.34;143748;571;46912;-88
2021/04/03 09:38:01;;;;;;;20.70;14.20;;;;;;;20.26;48.30;100730.81;143752;587;46008;-87
2021/04/03 09:40:45;;;;;;;18.15;13.40;;;;;;;20.39;47.78;100731.84;143745;611;46018;-87
2021/04/03 09:43:13;;;;;;;17.42;13.23;;;;;;;20.47;48.54;100731.94;143754;618;46008;-90
2021/04/03 09:45:40;;;;;;;15.70;12.02;;;;;;;20.55;47.22;100735.56;143748;605;46020;-86
2021/04/03 09:48:10;;;;;;;14.15;11.88;;;;;;;20.55;46.09;100730.28;143752;606;46008;-84
2021/04/03 09:50:38;;;;;;;17.23;13.23;;;;;;;20.61;48.20;100725.09;143749;638;47010;-88
2021/04/03 09:53:12;;;;;;;15.98;12.90;;;;;;;20.67;46.48;100719.00;143752;568;46008;-85
2021/04/03 09:55:39;;;;;;;16.52;12.60;;;;;;;20.72;47.61;100718.19;143746;598;46012;-83
2021/04/03 09:58:06;;;;;;;17.15;12.52;;;;;;;20.76;47.43;100713.81;143750;561;46018;-84
2021/04/03 10:00:33;;;;;;;15.98;11.55;;;;;;;20.93;46.72;100713.97;143749;590;46019;-82
2021/04/03 10:03:01;;;;;;;14.60;11.35;;;;;;;20.96;47.23;100706.97;143751;622;46008;-83
2021/04/03 10:05:27;;;;;;;13.40;11.15;;;;;;;21.05;46.60;100706.16;143744;585;46020;-85
2021/04/03 10:07:54;;;;;;;13.75;10.80;;;;;;;21.12;45.79;100702.72;143750;605;46009;-82
2021/04/03 10:10:23;;;;;;;19.37;11.48;;;;;;;21.21;46.54;100700.16;143751;636;46010;-82
2021/04/03 10:12:50;;;;;;;16.95;10.15;;;;;;;21.31;44.26;100697.56;143753;639;46008;-80
2021/04/03 10:15:21;;;;;;;17.35;11.45;;;;;;;21.38;44.05;100696.78;143750;596;46020;-83
2021/04/03 10:17:48;;;;;;;20.88;10.82;;;;;;;21.40;44.35;100693.28;143749;618;46008;-85
2021/04/03 10:20:15;;;;;;;13.55;9.55;;;;;;;21.53;44.64;100694.25;143750;564;46018;-82
2021/04/03 10:22:51;;;;;;;12.15;9.30;;;;;;;21.57;44.75;100692.50;143751;627;47008;-85
2021/04/03 10:25:21;;;;;;;14.77;9.90;;;;;;;21.74;44.02;100688.19;143749;603;46020;-83
2021/04/03 10:27:48;;;;;;;14.87;9.77;;;;;;;21.84;43.66;100689.13;143753;571;46008;-82
2021/04/03 10:30:16;;;;;;;12.85;10.25;;;;;;;21.86;44.06;100697.91;143742;605;46019;-79
2021/04/03 10:32:43;;;;;;;14.43;10.40;;;;;;;21.97;44.07;100683.03;143752;595;46008;-81
2021/04/03 10:35:10;;;;;;;15.30;10.27;;;;;;;22.11;42.24;100685.69;143748;593;46018;-82
2021/04/03 10:37:37;;;;;;;11.63;9.40;;;;;;;22.16;41.53;100681.37;143752;585;46008;-81
2021/04/03 10:40:05;;;;;;;12.68;9.57;;;;;;;22.19;42.41;100683.12;143751;581;46018;-81
2021/04/03 10:42:32;;;;;;;17.02;11.15;;;;;;;22.37;42.51;100675.25;143750;580;46008;-84
2021/04/03 10:44:59;;;;;;;17.73;11.63;;;;;;;22.40;41.08;100670.00;143748;619;46019;-82
2021/04/03 10:47:27;;;;;;;17.65;11.18;;;;;;;22.39;40.34;100670.84;143752;618;46008;-80
2021/04/03 10:49:54;;;;;;;17.95;11.57;;;;;;;22.57;40.39;100664.72;143749;567;46018;-82
2021/04/03 10:52:21;;;;;;;19.85;12.50;;;;;;;22.69;40.32;100659.44;143753;644;46008;-82
2021/04/03 10:54:48;;;;;;;19.23;14.30;;;;;;;22.73;39.87;100661.19;143745;562;46010;-83
2021/04/03 10:57:14;;;;;;;18.65;14.50;;;;;;;22.76;41.07;100666.47;143750;578;46008;-80
2021/04/03 10:59:41;;;;;;;27.15;13.40;;;;;;;22.78;41.95;100659.44;143748;578;46018;-83
2021/04/03 11:02:09;;;;;;;18.58;12.32;;;;;;;22.83;40.46;100655.06;143751;581;46018;-83
2021/04/03 11:04:36;;;;;;;14.52;9.88;;;;;;;22.88;38.86;100647.09;143748;650;46012;-82
2021/04/03 11:07:03;;;;;;;16.17;9.80;;;;;;;23.02;39.32;100647.13;143750;580;46019;-84
2021/04/03 11:09:30;;;;;;;10.93;8.40;;;;;;;23.03;37.26;100643.59;143750;579;46018;-83
2021/04/03 11:11:56;;;;;;;17.52;9.43;;;;;;;;;;143750;592;46008;-85
2021/04/03 11:14:23;;;;;;;15.70;9.07;;;;;;;23.18;38.99;100635.66;143749;569;46017;-85
2021/04/03 11:16:50;;;;;;;14.80;9.02;;;;;;;23.26;38.38;100640.91;143751;599;46026;-84
2021/04/03 11:19:17;;;;;;;14.02;8.40;;;;;;;23.35;36.83;100632.97;143747;587;46012;-86
2021/04/03 11:21:44;;;;;;;15.18;8.07;;;;;;;23.40;36.31;100635.62;143754;689;46010;-84
2021/04/03 11:24:11;;;;;;;17.08;8.80;;;;;;;23.45;35.88;100633.81;143749;743;46016;-81